Terminal Aerodrome Forecast
Issued by NWS

Home | Current Version | Previous Version | Text Only | Print | Product List | Glossary On
Versions: 1 2 3 4 5 6 7 8 9 10 11 12 13 14 15 16 17 18 19 20 21
031
FTUS43 KABR 292320
TAFATY
TAF
KATY 292320Z 3000/3024 15013KT P6SM SCT030 OVC250
     FM300300 11007KT P6SM OVC060
     FM300600 10006KT P6SM OVC030
     FM300800 09006KT P6SM OVC015
     FM301000 08007KT P6SM OVC008
     FM301800 08009KT P6SM BKN025
     FM302000 08009KT P6SM BKN030
     FM302300 07008KT P6SM SCT035=

USA.gov is the U.S. government's official web portal to all federal, state and local government web resources and services.